Aeroporto :
LOGIN :

Iscrizione | Disclaimer

   EN    FR    IT 

 










Sommario :    VFR   VFR Marginale   IFR   IFR Intensivo   IFR Molto Intensivo
Visibilità : 
Base nubi : 
>= 8 km
>= 3000ft
5 / 8 km
1000 / 3000 ft
1500m / 5 km
500 / 1000 ft
800 / 1500m
200 / 500 ft
< 800m
< 200 ft
Simboli :   Temporali  Nebbia  Neve Forte  Precipitazioni Forti  Vento > 20 kt
SIGMETs :   Varie  Temporali  Ghiacco  Turbolenza  Onda orograficha  Ceneri Vulcaniche






- Altitudine del aeroporto : 459 ft
- Codice IATA : CER


LFRC - Cherbourg / Maupertus

ULTIMO METAR :
  • 171800Z AUTO 25013KT 8000 -RA FEW024/// BKN034/// BKN047/// ///CB 05/03 Q1020 TEMPO 27020G45KT 2000 TSRAGS BKN012CB

METARs OBSOLETI :
  • 171730Z AUTO 24008KT 9999 FEW012/// SCT033/// BKN190/// ///CB 04/02 Q1020 TEMPO 27020G45KT 2000 TSRAGS BKN012CB
  • 171700Z AUTO 29013KT 240V320 6000 TSRA FEW016/// SCT024/// BKN033/// ///CB 05/03 Q1020 TEMPO 27020G45KT 2000 TSRAGS BKN012CB
  • 171630Z AUTO 24011KT 9999 ///CB 05/02 Q1019 TEMPO 27020G45KT 2000 TSRAGS BKN012CB
  • 171600Z AUTO 25015KT 9999 FEW042/// SCT110/// ///TCU 06/02 Q1019 TEMPO 27020G45KT 2000 TSRAGS BKN012CB
  • 171530Z AUTO 28018G29KT 9999 -RA FEW022/// SCT035/// BKN048/// ///TCU 05/02 Q1019 TEMPO 27020G45KT 2000 TSRAGS BKN012CB

TAF TAF LFRC
Valido dal 17 a 15 ore il 18 a 00 ore UTC


171400Z 1715/1724 26020G35KT 9999 BKN025
TEMPO 1715/1724 4000 SHRA BKN015CB
PROB40
TEMPO 1715/1724 2000 TSRAGS BKN012CB
TEMPO 1715/1720 27020G45KT



MetMap, La meteo Aeronautica in un colpo d'occhio ! - Copyright ORBIFLY Dicembre 2007 - Disclaimer

ORBIFLY MET'MAP TEAM :

Programmazione e sviluppo : Alexandra Zaïnal
Concezione : Baudouin d'Aumeries
Aiuto per la programmazione : Marc-Olivier Méhu
Supporto tecnico e logistico : Manuel Goepfert
Aiuto per la traduzione : Arnaldo La Scala

Contatto : metmap@orbifly.com




FONTI E CREDITI :

   NOAA